Information Last Ob Photographs Meteogram Network Table Neighbors Monthly Summaries Observation History Wind Roses Custom Wind Roses Data Calendar Download

12 December 2019 Observation History, [MLI] Moline, timezone: America/Chicago

Select Date:

Show METARs   Show High Frequency MADIS

Previous Day
Time Wind
(mph)
Vis.
(mi.)
Sky Cond.
(100s ft)
Present Wx Temperature (ºF) Relative
Humidity
Pressure Precipitation (in.)
Air Dwpt Feels Like 6 hour altimeter
(in.)
sea level
(mb)
1 hr 3 hr 6 hr
Max.Min.
6:00 PMSSW 910 OVC045
% 30.02
KMLI 130000Z AUTO 21008KT 10SM OVC045 07/M03 A3002 RMK T00701030 MADISHF
5:52 PMSW 810 OVC043
442640 45 41 49% 30.020
KMLI 122352Z 22007KT 10SM OVC043 07/M03 A3002 RMK AO2 SLP170 T00671033 10072 20050 51002
5:50 PMSW 810 OVC043
% 30.02
KMLI 122350Z AUTO 22007KT 10SM OVC043 07/M03 A3002 RMK T00701030 MADISHF
5:45 PMSW 910 OVC041
% 30.02
KMLI 122345Z AUTO 22008KT 10SM OVC041 07/M03 A3002 RMK T00701030 MADISHF
5:40 PMSSW 910 OVC041
% 30.02
KMLI 122340Z AUTO 21008KT 10SM OVC041 07/M03 A3002 RMK T00701030 MADISHF
5:35 PMSSW 1010 OVC041
% 30.02
KMLI 122335Z AUTO 20009KT 10SM OVC041 07/M03 A3002 RMK T00701030 MADISHF
5:30 PMSSW 1210 OVC041
% 30.01
KMLI 122330Z AUTO 20010KT 10SM OVC041 07/M03 A3001 RMK T00701030 MADISHF
5:25 PMSSW 1010 OVC041
% 30.01
KMLI 122325Z AUTO 19009KT 10SM OVC041 07/M03 A3001 RMK T00701030 MADISHF
5:20 PMSSW 1010 OVC041
% 30.01
KMLI 122320Z AUTO 20009KT 10SM OVC041 07/M03 A3001 RMK T00701030 MADISHF
5:15 PMSSW 1310 OVC041
% 30.01
KMLI 122315Z AUTO 20011KT 10SM OVC041 07/M03 A3001 RMK T00701030 MADISHF
5:10 PMSSW 1010 OVC041
% 30.02
KMLI 122310Z AUTO 20009KT 10SM OVC041 07/M03 A3002 RMK T00701030 MADISHF
5:05 PMSSW 1010 OVC041
% 30.02
KMLI 122305Z AUTO 21009KT 10SM OVC041 07/M03 A3002 RMK T00701030 MADISHF
5:00 PMSSW 910 OVC042
% 30.01
KMLI 122300Z AUTO 21008KT 10SM OVC042 07/M03 A3001 RMK T00701030 MADISHF
4:52 PMSSW 910 OVC042
442639 49% 30.020
KMLI 122252Z 21008KT 10SM OVC042 07/M03 A3002 RMK AO2 SLP171 T00671033
4:50 PMSSW 910 OVC042
% 30.02
KMLI 122250Z AUTO 21008KT 10SM OVC042 07/M03 A3002 RMK T00701030 MADISHF
4:45 PMSSW 1210 OVC043
% 30.02
KMLI 122245Z AUTO 20010KT 10SM OVC043 07/M03 A3002 RMK T00701030 MADISHF
4:40 PMSSW 1010 OVC043
% 30.02
KMLI 122240Z AUTO 21009KT 10SM OVC043 07/M03 A3002 RMK T00701030 MADISHF
4:35 PMSSW 1210 OVC043
% 30.02
KMLI 122235Z AUTO 21010KT 10SM OVC043 07/M03 A3002 RMK T00701030 MADISHF
4:30 PMSSW 1210 OVC043
% 30.02
KMLI 122230Z AUTO 20010KT 10SM OVC043 07/M03 A3002 RMK T00701030 MADISHF
4:25 PMSSW 1210 OVC043
% 30.02
KMLI 122225Z AUTO 20010KT 10SM OVC043 07/M03 A3002 RMK T00701030 MADISHF
4:20 PMSSW 1010 OVC045
% 30.02
KMLI 122220Z AUTO 20009KT 10SM OVC045 07/M03 A3002 RMK T00701030 MADISHF
4:15 PMSSW 1310 OVC045
% 30.02
KMLI 122215Z AUTO 21011KT 10SM OVC045 07/M03 A3002 RMK T00701030 MADISHF
4:10 PMSSW 1010 OVC045
% 30.02
KMLI 122210Z AUTO 21009KT 10SM OVC045 07/M03 A3002 RMK T00701030 MADISHF
4:05 PMSSW 13G 2010 OVC046
% 30.02
KMLI 122205Z AUTO 21011G17KT 10SM OVC046 07/M03 A3002 RMK T00701030 MADISHF
4:00 PMSSW 1310 OVC046
% 30.02
KMLI 122200Z AUTO 21011KT 10SM OVC046 07/M03 A3002 RMK T00701030 MADISHF
3:55 PMSSW 1010 OVC044
% 30.02
KMLI 122155Z AUTO 20009KT 10SM OVC044 07/M03 A3002 RMK T00701030 MADISHF
3:52 PMSSW 1310 OVC044
442638 49% 30.020
KMLI 122152Z 21011KT 10SM OVC044 07/M03 A3002 RMK AO2 SLP170 T00671033
3:50 PMSSW 910 OVC044
% 30.01
KMLI 122150Z AUTO 20008KT 10SM OVC044 07/M03 A3001 RMK T00701030 MADISHF
3:45 PMSSW 12G 1710 OVC044
% 30.02
KMLI 122145Z AUTO 21010G15KT 10SM OVC044 07/M03 A3002 RMK T00701030 MADISHF
3:40 PMSSW 1310 OVC044
% 30.02
KMLI 122140Z AUTO 21011KT 10SM OVC044 07/M03 A3002 RMK T00701030 MADISHF
3:35 PMSSW 1310 OVC044
% 30.02
KMLI 122135Z AUTO 21011KT 10SM OVC044 07/M04 A3002 RMK T00701040 MADISHF
3:30 PMSSW 13G 2010 OVC043
% 30.02
KMLI 122130Z AUTO 21011G17KT 10SM OVC043 07/M03 A3002 RMK T00701030 MADISHF
3:25 PMSSW 1010 OVC043
% 30.01
KMLI 122125Z AUTO 21009KT 10SM OVC043 07/M03 A3001 RMK T00701030 MADISHF
3:20 PMSSW 13G 2010 OVC043
% 30.01
KMLI 122120Z AUTO 21011G17KT 10SM OVC043 07/M04 A3001 RMK T00701040 MADISHF
3:15 PMSSW 1310 OVC043
% 30.01
KMLI 122115Z AUTO 21011KT 10SM OVC043 07/M03 A3001 RMK T00701030 MADISHF
3:10 PMSSW 1310 OVC042
% 30.01
KMLI 122110Z AUTO 21011KT 10SM OVC042 07/M03 A3001 RMK T00701030 MADISHF
3:05 PMSSW 1310 OVC042
% 30.01
KMLI 122105Z AUTO 21011KT 10SM OVC042 07/M03 A3001 RMK T00701030 MADISHF
3:00 PMSSW 1710 OVC042
% 30.01
KMLI 122100Z AUTO 21015KT 10SM OVC042 07/M04 A3001 RMK T00701040 MADISHF
2:55 PMSSW 16G 2310 OVC042
% 30.01
KMLI 122055Z AUTO 21014G20KT 10SM OVC042 07/M04 A3001 RMK T00701040 MADISHF
2:52 PMSSW 17G 2310 OVC044
452538 45% 30.010
KMLI 122052Z 21015G20KT 10SM OVC044 07/M04 A3001 RMK AO2 SLP169 T00721039 56022
2:50 PMSSW 1510 OVC044
% 30.01
KMLI 122050Z AUTO 21013KT 10SM OVC044 07/M03 A3001 RMK T00701030 MADISHF
2:45 PMSSW 1610 OVC044
% 30.01
KMLI 122045Z AUTO 21014KT 10SM OVC044 07/M03 A3001 RMK T00701030 MADISHF
2:40 PMSSW 16G 2310 OVC044
% 30.01
KMLI 122040Z AUTO 21014G20KT 10SM OVC044 07/M03 A3001 RMK T00701030 MADISHF
2:35 PMSSW 1510 OVC044
% 30.01
KMLI 122035Z AUTO 21013KT 10SM OVC044 07/M04 A3001 RMK T00701040 MADISHF
2:30 PMSSW 1510 OVC044
% 30.01
KMLI 122030Z AUTO 21013KT 10SM OVC044 07/M04 A3001 RMK T00701040 MADISHF
2:25 PMSSW 1610 OVC039
% 30.01
KMLI 122025Z AUTO 20014KT 10SM OVC039 07/M04 A3001 RMK T00701040 MADISHF
2:20 PMSSW 15G 2310 OVC039
% 30.01
KMLI 122020Z AUTO 21013G20KT 10SM OVC039 07/M03 A3001 RMK T00701030 MADISHF
2:15 PMSSW 1310 OVC039
% 30.02
KMLI 122015Z AUTO 21011KT 10SM OVC039 07/M04 A3002 RMK T00701040 MADISHF
2:10 PMSSW 13G 2110 OVC039
% 30.02
KMLI 122010Z AUTO 21011G18KT 10SM OVC039 07/M04 A3002 RMK T00701040 MADISHF
2:05 PMSSW 1310 OVC039
% 30.02
KMLI 122005Z AUTO 20011KT 10SM OVC039 07/M04 A3002 RMK T00701040 MADISHF
2:00 PMSSW 13G 2210 OVC039
% 30.02
KMLI 122000Z AUTO 21011G19KT 10SM OVC039 07/M04 A3002 RMK T00701040 MADISHF
1:55 PMSSW 1310 OVC039
% 30.03
KMLI 121955Z AUTO 21011KT 10SM OVC039 07/M04 A3003 RMK T00701040 MADISHF
1:52 PMSSW 14G 2510 OVC040
442537 47% 30.030
KMLI 121952Z 21012G22KT 10SM OVC040 07/M04 A3003 RMK AO2 SLP174 T00671039
1:50 PMSSW 1610 OVC039
% 30.03
KMLI 121950Z AUTO 21014KT 10SM OVC039 07/M03 A3003 RMK T00701030 MADISHF
1:45 PMSSW 13G 2110 OVC039
% 30.03
KMLI 121945Z AUTO 21011G18KT 10SM OVC039 07/M04 A3003 RMK T00701040 MADISHF
1:40 PMSSW 16G 2210 OVC039
% 30.03
KMLI 121940Z AUTO 20014G19KT 10SM OVC039 07/M04 A3003 RMK T00701040 MADISHF
1:35 PMSSW 13G 2010 OVC039
% 30.03
KMLI 121935Z AUTO 21011G17KT 10SM OVC039 07/M04 A3003 RMK T00701040 MADISHF
1:30 PMSSW 1610 OVC039
% 30.03
KMLI 121930Z AUTO 21014KT 10SM OVC039 07/M04 A3003 RMK T00701040 MADISHF
1:25 PMSSW 13G 2110 OVC039
% 30.04
KMLI 121925Z AUTO 21011G18KT 10SM OVC039 07/M04 A3004 RMK T00701040 MADISHF
1:20 PMSSW 16G 2210 OVC039
% 30.04
KMLI 121920Z AUTO 21014G19KT 10SM OVC039 07/M04 A3004 RMK T00701040 MADISHF
1:15 PMSSW 12G 2210 OVC039
% 30.04
KMLI 121915Z AUTO 21010G19KT 10SM OVC039 07/M04 A3004 RMK T00701040 MADISHF
1:10 PMSSW 1710 OVC039
% 30.04
KMLI 121910Z AUTO 21015KT 10SM OVC039 07/M04 A3004 RMK T00701040 MADISHF
1:05 PMSSW 1610 OVC039
% 30.04
KMLI 121905Z AUTO 21014KT 10SM OVC039 07/M04 A3004 RMK T00701040 MADISHF
1:00 PMSSW 1310 OVC042
% 30.05
KMLI 121900Z AUTO 21011KT 10SM OVC042 07/M04 A3004 RMK T00701040 MADISHF
12:55 PMSSW 16G 2310 OVC044
% 30.05
KMLI 121855Z AUTO 20014G20KT 10SM OVC044 07/M03 A3004 RMK T00701030 MADISHF
12:52 PMSSW 15G 2610 OVC044
442537 47% 30.050
KMLI 121852Z 21013G23KT 10SM OVC044 07/M04 A3005 RMK AO2 SLP181 T00671039
12:50 PMSSW 1610 OVC044
% 30.05
KMLI 121850Z AUTO 21014KT 10SM OVC044 07/M04 A3004 RMK T00701040 MADISHF
12:45 PMSSW 1310 OVC046
% 30.05
KMLI 121845Z AUTO 21011KT 10SM OVC046 07/M04 A3004 RMK T00701040 MADISHF
12:40 PMSSW 1510 OVC046
% 30.06
KMLI 121840Z AUTO 21013KT 10SM OVC046 06/M04 A3005 RMK T00601040 MADISHF
12:35 PMSSW 12G 1710 OVC048
% 30.06
KMLI 121835Z AUTO 21010G15KT 10SM OVC048 06/M03 A3005 RMK T00601030 MADISHF
12:30 PMSSW 1310 OVC048
% 30.06
KMLI 121830Z AUTO 21011KT 10SM OVC048 06/M03 A3005 RMK T00601030 MADISHF
12:25 PMSSW 1310 OVC047
% 30.06
KMLI 121825Z AUTO 21011KT 10SM OVC047 06/M03 A3005 RMK T00601030 MADISHF
12:20 PMSSW 1310 OVC047
% 30.07
KMLI 121820Z AUTO 21011KT 10SM OVC047 06/M03 A3006 RMK T00601030 MADISHF
12:15 PMSSW 1210 OVC047
% 30.07
KMLI 121815Z AUTO 21010KT 10SM OVC047 06/M03 A3006 RMK T00601030 MADISHF
12:10 PMSSW 1310 OVC047
% 30.07
KMLI 121810Z AUTO 21011KT 10SM OVC047 06/M03 A3006 RMK T00601030 MADISHF
12:05 PMSSW 1010 OVC047
% 30.08
KMLI 121805Z AUTO 20009KT 10SM OVC047 05/M03 A3007 RMK T00501030 MADISHF
12:00 PMSSW 13G 1810 OVC048
% 30.08
KMLI 121800Z AUTO 21011G16KT 10SM OVC048 05/M03 A3007 RMK T00501030 MADISHF
11:55 AMSSW 10G 1610 OVC048
% 30.08
KMLI 121755Z AUTO 20009G14KT 10SM OVC048 05/M03 A3007 RMK T00501030 MADISHF
11:52 AMSSW 14G 2210 OVC048
412633 41 26 55% 30.080
KMLI 121752Z 21012G19KT 10SM OVC048 05/M03 A3008 RMK AO2 SLP192 T00501033 10050 21033 58019
11:50 AMSSW 15G 2110 OVC048
% 30.08
KMLI 121750Z AUTO 21013G18KT 10SM OVC048 05/M03 A3007 RMK T00501030 MADISHF
11:45 AMSSW 1210 OVC050
% 30.08
KMLI 121745Z AUTO 20010KT 10SM OVC050 05/M03 A3007 RMK T00501030 MADISHF
11:40 AMSSW 13G 1810 OVC050
% 30.09
KMLI 121740Z AUTO 20011G16KT 10SM OVC050 05/M03 A3009 RMK T00501030 MADISHF
11:35 AMSSW 1710 OVC050
% 30.09
KMLI 121735Z AUTO 20015KT 10SM OVC050 05/M03 A3009 RMK T00501030 MADISHF
11:30 AMSSW 13G 1810 OVC050
% 30.09
KMLI 121730Z AUTO 20011G16KT 10SM OVC050 05/M03 A3009 RMK T00501030 MADISHF
11:25 AMSSW 1310 OVC055
% 30.09
KMLI 121725Z AUTO 20011KT 10SM OVC055 05/M03 A3009 RMK T00501030 MADISHF
11:20 AMSSW 1310 OVC055
% 30.09
KMLI 121720Z AUTO 20011KT 10SM OVC055 05/M03 A3009 RMK T00501030 MADISHF
11:15 AMSSW 1610 OVC055
% 30.1
KMLI 121715Z AUTO 20014KT 10SM OVC055 05/M04 A3010 RMK T00501040 MADISHF
11:10 AMSSW 17G 2310 OVC060
% 30.1
KMLI 121710Z AUTO 20015G20KT 10SM OVC060 05/M04 A3010 RMK T00501040 MADISHF
11:05 AMSSW 15G 2310 BKN060
OVC070
% 30.1
KMLI 121705Z AUTO 20013G20KT 10SM BKN060 OVC070 05/M04 A3010 RMK T00501040 MADISHF
11:00 AMSSW 17G 2410 BKN060
OVC090
% 30.1
KMLI 121700Z AUTO 21015G21KT 10SM BKN060 OVC090 05/M04 A3010 RMK T00501040 MADISHF
10:55 AMSSW 17G 2510 BKN060
OVC090
% 30.11
KMLI 121655Z AUTO 21015G22KT 10SM BKN060 OVC090 05/M04 A3011 RMK T00501040 MADISHF
10:52 AMSSW 16G 2810 BKN065
OVC090
412533 53% 30.110
KMLI 121652Z 20014G24KT 10SM BKN065 OVC090 05/M04 A3011 RMK AO2 SLP204 T00501039
10:50 AMSSW 15G 2510 BKN065
OVC090
% 30.11
KMLI 121650Z AUTO 21013G22KT 10SM BKN065 OVC090 04/M04 A3011 RMK T00401040 MADISHF
10:45 AMSSW 17G 2410 BKN065
OVC090
% 30.11
KMLI 121645Z AUTO 20015G21KT 10SM BKN065 OVC090 04/M04 A3011 RMK T00401040 MADISHF
10:40 AMSSW 1710 BKN070
OVC090
% 30.12
KMLI 121640Z AUTO 21015KT 10SM BKN070 OVC090 04/M04 A3012 RMK T00401040 MADISHF
10:35 AMSSW 1610 BKN070
OVC090
% 30.12
KMLI 121635Z AUTO 21014KT 10SM BKN070 OVC090 04/M04 A3012 RMK T00401040 MADISHF
10:30 AMSSW 1610 BKN070
OVC090
% 30.12
KMLI 121630Z AUTO 20014KT 10SM BKN070 OVC090 04/M04 A3012 RMK T00401040 MADISHF
10:25 AMSSW 1510 OVC070
% 30.12
KMLI 121625Z AUTO 20013KT 10SM OVC070 04/M03 A3012 RMK T00401030 MADISHF
10:20 AMSSW 13G 2110 BKN070
OVC085
% 30.12
KMLI 121620Z AUTO 21011G18KT 10SM BKN070 OVC085 04/M03 A3012 RMK T00401030 MADISHF
10:15 AMSSW 1510 BKN070
OVC085
% 30.13
KMLI 121615Z AUTO 21013KT 10SM BKN070 OVC085 04/M04 A3012 RMK T00401040 MADISHF
10:10 AMSSW 1610 BKN070
OVC090
% 30.12
KMLI 121610Z AUTO 20014KT 10SM BKN070 OVC090 04/M04 A3012 RMK T00401040 MADISHF
10:05 AMSSW 17G 2310 SCT075
OVC090
% 30.12
KMLI 121605Z AUTO 19015G20KT 10SM SCT075 OVC090 04/M04 A3012 RMK T00401040 MADISHF
10:00 AMSSW 1710 OVC085
% 30.12
KMLI 121600Z AUTO 19015KT 10SM OVC085 04/M04 A3012 RMK T00401040 MADISHF
9:55 AMSSW 15G 2510 OVC090
% 30.12
KMLI 121555Z AUTO 20013G22KT 10SM OVC090 04/M04 A3012 RMK T00401040 MADISHF
9:52 AMSSW 16G 2510 OVC090
392530 57% 30.120
KMLI 121552Z 19014G22KT 10SM OVC090 04/M04 A3012 RMK AO2 SLP208 T00391039
9:50 AMSSW 16G 2210 OVC090
% 30.12
KMLI 121550Z AUTO 19014G19KT 10SM OVC090 04/M04 A3012 RMK T00401040 MADISHF
9:45 AMSSW 16G 2210 OVC090
% 30.13
KMLI 121545Z AUTO 19014G19KT 10SM OVC090 03/M04 A3012 RMK T00301040 MADISHF
9:40 AMSSW 1510 OVC090
% 30.12
KMLI 121540Z AUTO 19013KT 10SM OVC090 03/M04 A3012 RMK T00301040 MADISHF
9:35 AMSSW 1710 BKN090
% 30.12
KMLI 121535Z AUTO 19015KT 10SM BKN090 03/M04 A3012 RMK T00301040 MADISHF
9:30 AMSSW 1510 BKN090
% 30.13
KMLI 121530Z AUTO 19013KT 10SM BKN090 03/M04 A3012 RMK T00301040 MADISHF
9:25 AMSSW 1610 BKN090
% 30.12
KMLI 121525Z AUTO 19014KT 10SM BKN090 03/M04 A3012 RMK T00301040 MADISHF
9:20 AMSSW 1610 SCT090
% 30.13
KMLI 121520Z AUTO 19014KT 10SM SCT090 03/M04 A3012 RMK T00301040 MADISHF
9:15 AMSSW 1710 FEW095
% 30.13
KMLI 121515Z AUTO 19015KT 10SM FEW095 03/M04 A3012 RMK T00301040 MADISHF
9:10 AMSSW 1510 CLR
% 30.13
KMLI 121510Z AUTO 19013KT 10SM CLR 03/M04 A3012 RMK T00301040 MADISHF
9:05 AMSSW 15G 2310 CLR
% 30.14
KMLI 121505Z AUTO 19013G20KT 10SM CLR 03/M04 A3013 RMK T00301040 MADISHF
9:00 AMS 1610 FEW090
% 30.13
KMLI 121500Z AUTO 18014KT 10SM FEW090 03/M04 A3012 RMK T00301040 MADISHF
8:55 AMSSW 1810 FEW090
% 30.13
KMLI 121455Z AUTO 19016KT 10SM FEW090 03/M04 A3012 RMK T00301040 MADISHF
8:52 AMSSW 14G 2510 SCT090
362527 64% 30.140
KMLI 121452Z 19012G22KT 10SM SCT090 02/M04 A3014 RMK AO2 SLP213 T00221039 56027
8:50 AMSSW 17G 2410 SCT090
% 30.14
KMLI 121450Z AUTO 19015G21KT 10SM SCT090 03/M04 A3013 RMK T00301040 MADISHF
8:50 AMM10 SCT090
% 30.14
KMLI 121450Z AUTO ///15G21KT 10SM SCT090 03/M04 A3013 RMK T00301040 MADISHF
8:45 AMSSW 1610 SCT095
% 30.15
KMLI 121445Z AUTO 19014KT 10SM SCT095 03/M04 A3014 RMK T00301040 MADISHF
8:45 AMM10 SCT095
% 30.15
KMLI 121445Z AUTO ///14KT 10SM SCT095 03/M04 A3014 RMK T00301040 MADISHF
8:40 AMSSW 17G 2510 BKN090
% 30.14
KMLI 121440Z AUTO 19015G22KT 10SM BKN090 02/M04 A3013 RMK T00201040 MADISHF
8:40 AMM10 BKN090
% 30.14
KMLI 121440Z AUTO ///15G22KT 10SM BKN090 02/M04 A3013 RMK T00201040 MADISHF
8:35 AMS 1310 OVC090
% 30.15
KMLI 121435Z AUTO 18011KT 10SM OVC090 02/M04 A3014 RMK T00201040 MADISHF
8:30 AMSSW 13G 2110 OVC090
% 30.15
KMLI 121430Z AUTO 19011G18KT 10SM OVC090 02/M04 A3014 RMK T00201040 MADISHF
8:25 AMSSW 1310 OVC090
% 30.15
KMLI 121425Z AUTO 19011KT 10SM OVC090 02/M04 A3014 RMK T00201040 MADISHF
8:20 AMSSW 1310 OVC090
% 30.16
KMLI 121420Z AUTO 19011KT 10SM OVC090 02/M04 A3015 RMK T00201040 MADISHF
8:15 AMSSW 1010 OVC090
% 30.16
KMLI 121415Z AUTO 19009KT 10SM OVC090 02/M04 A3015 RMK T00201040 MADISHF
8:10 AMS 13G 2110 OVC090
% 30.16
KMLI 121410Z AUTO 18011G18KT 10SM OVC090 02/M04 A3015 RMK T00201040 MADISHF
8:05 AMS 1310 BKN085
% 30.16
KMLI 121405Z AUTO 18011KT 10SM BKN085 01/M04 A3015 RMK T00101040 MADISHF
8:00 AMS 13G 2110 BKN085
% 30.15
KMLI 121400Z AUTO 18011G18KT 10SM BKN085 01/M04 A3014 RMK T00101040 MADISHF
7:55 AMS 1510 BKN085
% 30.16
KMLI 121355Z AUTO 18013KT 10SM BKN085 01/M04 A3015 RMK T00101040 MADISHF
7:52 AMS 15G 2310 SCT085
342424 67% 30.150
KMLI 121352Z 18013G20KT 10SM SCT085 01/M04 A3015 RMK AO2 SLP219 T00111044
7:50 AMS 15G 2210 SCT085
% 30.16
KMLI 121350Z AUTO 18013G19KT 10SM SCT085 01/M04 A3015 RMK T00101040 MADISHF
7:45 AMSSW 1310 CLR
% 30.16
KMLI 121345Z AUTO 19011KT 10SM CLR 01/M04 A3015 RMK T00101040 MADISHF
7:40 AMS 15G 2110 FEW085
% 30.17
KMLI 121340Z AUTO 17013G18KT 10SM FEW085 01/M04 A3017 RMK T00101040 MADISHF
7:35 AMS 12G 2110 FEW085
% 30.17
KMLI 121335Z AUTO 17010G18KT 10SM FEW085 01/M04 A3017 RMK T00101040 MADISHF
7:30 AMS 1310 SCT085
% 30.17
KMLI 121330Z AUTO 18011KT 10SM SCT085 01/M05 A3017 RMK T00101050 MADISHF
7:25 AMS 1310 BKN085
% 30.17
KMLI 121325Z AUTO 18011KT 10SM BKN085 01/M05 A3017 RMK T00101050 MADISHF
7:20 AMS 1310 BKN085
% 30.17
KMLI 121320Z AUTO 18011KT 10SM BKN085 00/M05 A3017 RMK T00001050 MADISHF
7:15 AMS 12G 1810 OVC085
% 30.18
KMLI 121315Z AUTO 18010G16KT 10SM OVC085 00/M05 A3018 RMK T00001050 MADISHF
7:10 AMSSE 1210 OVC085
% 30.18
KMLI 121310Z AUTO 16010KT 10SM OVC085 M01/M05 A3018 RMK T10101050 MADISHF
7:05 AMSSE 1210 OVC085
% 30.18
KMLI 121305Z AUTO 16010KT 10SM OVC085 M01/M05 A3018 RMK T10101050 MADISHF
7:00 AMS 1010 OVC085
% 30.18
KMLI 121300Z AUTO 17009KT 10SM OVC085 M01/M05 A3018 RMK T10101050 MADISHF
6:55 AMSSE 89 OVC085
% 30.19
KMLI 121255Z AUTO 16007KT 9SM OVC085 M01/M05 A3019 RMK T10101050 MADISHF
6:52 AMSSE 109 OVC085
302321 75% 30.190
KMLI 121252Z 16009KT 9SM OVC085 M01/M05 A3019 RMK AO2 SLP232 T10111050
6:50 AMSSE 99 OVC085
% 30.19
KMLI 121250Z AUTO 16008KT 9SM OVC085 M02/M05 A3019 RMK T10201050 MADISHF
6:45 AMSSE 98 OVC085
% 30.19
KMLI 121245Z AUTO 16008KT 8SM OVC085 M02/M06 A3019 RMK T10201060 MADISHF
6:40 AMSSE 98 OVC085
% 30.19
KMLI 121240Z AUTO 15008KT 8SM OVC085 M02/M06 A3019 RMK T10201060 MADISHF
6:35 AMSSE 98 OVC085
% 30.2
KMLI 121235Z AUTO 15008KT 8SM OVC085 M02/M06 A3020 RMK T10201060 MADISHF
6:30 AMSSE 98 OVC085
% 30.2
KMLI 121230Z AUTO 15008KT 8SM OVC085 M02/M06 A3020 RMK T10201060 MADISHF
6:25 AMSSE 98 OVC085
% 30.2
KMLI 121225Z AUTO 15008KT 8SM OVC085 M02/M06 A3020 RMK T10201060 MADISHF
6:20 AMSSE 98 OVC085
% 30.21
KMLI 121220Z AUTO 15008KT 8SM OVC085 M02/M06 A3020 RMK T10201060 MADISHF
6:15 AMSE 98 OVC079
% 30.21
KMLI 121215Z AUTO 14008KT 8SM OVC079 M02/M06 A3020 RMK T10201060 MADISHF
6:10 AMSE 98 BKN079
% 30.21
KMLI 121210Z AUTO 14008KT 8SM BKN079 M03/M06 A3020 RMK T10301060 MADISHF
6:05 AMSE 88 BKN079
% 30.21
KMLI 121205Z AUTO 14007KT 8SM BKN079 M03/M06 A3020 RMK T10301060 MADISHF
6:00 AMSSE 67 BKN079
% 30.21
KMLI 121200Z AUTO 15005KT 7SM BKN079 M03/M06 A3020 RMK T10301060 MADISHF
5:55 AMSE 67 SCT079
% 30.22
KMLI 121155Z AUTO 13005KT 7SM SCT079 M03/M07 A3021 RMK T10301070 MADISHF
5:52 AMSE 87 SCT080
262018 26 16 77% 30.220
KMLI 121152Z 13007KT 7SM SCT080 M03/M07 A3022 RMK AO2 SLP242 70003 T10331067 11033 21089 58030
5:50 AMSE 67 FEW079
% 30.22
KMLI 121150Z AUTO 13005KT 7SM FEW079 M03/M07 A3021 RMK T10301070 MADISHF
5:45 AMESE 67 FEW079
% 30.22
KMLI 121145Z AUTO 12005KT 7SM FEW079 M04/M07 A3021 RMK T10401070 MADISHF
5:40 AMESE 66 FEW079
{HZ} % 30.23
KMLI 121140Z AUTO 11005KT 6SM HZ FEW079 M04/M07 A3022 RMK T10401070 MADISHF
5:35 AMESE 66 FEW079
{HZ} % 30.22
KMLI 121135Z AUTO 11005KT 6SM HZ FEW079 M05/M08 A3021 RMK T10501080 MADISHF
5:30 AME 66 FEW079
{HZ} % 30.23
KMLI 121130Z AUTO 10005KT 6SM HZ FEW079 M05/M08 A3022 RMK T10501080 MADISHF
5:25 AME 66 FEW079
{HZ} % 30.23
KMLI 121125Z AUTO 10005KT 6SM HZ FEW079 M05/M08 A3022 RMK T10501080 MADISHF
5:20 AME 66 CLR
{BR} % 30.24
KMLI 121120Z AUTO 09005KT 6SM BR CLR M06/M08 A3023 RMK T10601080 MADISHF
5:15 AME 66 CLR
{HZ} % 30.24
KMLI 121115Z AUTO 09005KT 6SM HZ CLR M05/M08 A3023 RMK T10501080 MADISHF
5:10 AME 66 CLR
{BR} % 30.24
KMLI 121110Z AUTO 09005KT 6SM BR CLR M05/M07 A3023 RMK T10501070 MADISHF
5:05 AME 66 CLR
{BR} % 30.25
KMLI 121105Z AUTO 10005KT 6SM BR CLR M05/M07 A3025 RMK T10501070 MADISHF
5:00 AMESE 66 CLR
{HZ} % 30.25
KMLI 121100Z AUTO 11005KT 6SM HZ CLR M05/M08 A3025 RMK T10501080 MADISHF
4:55 AME 66 CLR
{BR} % 30.25
KMLI 121055Z AUTO 10005KT 6SM BR CLR M06/M08 A3025 RMK T10601080 MADISHF
4:52 AME 76 CLR
{HZ}221713 81% 30.250
KMLI 121052Z AUTO 10006KT 6SM HZ CLR M06/M08 A3025 RMK AO2 SLP253 T10561083
4:50 AME 66 CLR
{BR} % 30.25
KMLI 121050Z AUTO 10005KT 6SM BR CLR M06/M08 A3025 RMK T10601080 MADISHF
4:45 AME 66 CLR
{BR} % 30.25
KMLI 121045Z AUTO 10005KT 6SM BR CLR M06/M08 A3025 RMK T10601080 MADISHF
4:40 AME 66 CLR
{BR} % 30.26
KMLI 121040Z AUTO 10005KT 6SM BR CLR M06/M08 A3026 RMK T10601080 MADISHF
4:35 AME 66 CLR
{BR} % 30.26
KMLI 121035Z AUTO 09005KT 6SM BR CLR M06/M08 A3026 RMK T10601080 MADISHF
4:30 AME 66 CLR
{BR} % 30.26
KMLI 121030Z AUTO 10005KT 6SM BR CLR M06/M08 A3026 RMK T10601080 MADISHF
4:25 AME 66 CLR
{BR} % 30.26
KMLI 121025Z AUTO 10005KT 6SM BR CLR M06/M08 A3026 RMK T10601080 MADISHF
4:20 AMESE 86 CLR
{HZ} % 30.26
KMLI 121020Z AUTO 11007KT 6SM HZ CLR M06/M09 A3026 RMK T10601090 MADISHF
4:15 AMESE 86 CLR
{BR} % 30.27
KMLI 121015Z AUTO 11007KT 6SM BR CLR M07/M09 A3027 RMK T10701090 MADISHF
4:10 AME 86 CLR
{BR} % 30.27
KMLI 121010Z AUTO 10007KT 6SM BR CLR M07/M09 A3027 RMK T10701090 MADISHF
4:05 AME 86 CLR
{BR} % 30.28
KMLI 121005Z AUTO 10007KT 6SM BR CLR M07/M09 A3028 RMK T10701090 MADISHF
4:00 AME 86 CLR
{HZ} % 30.28
KMLI 121000Z AUTO 09007KT 6SM HZ CLR M07/M10 A3028 RMK T10701100 MADISHF
3:55 AME 86 CLR
{BR} % 30.28
KMLI 120955Z AUTO 09007KT 6SM BR CLR M08/M10 A3028 RMK T10801100 MADISHF
3:52 AME 96 CLR
{BR}18147 84% 30.280
KMLI 120952Z AUTO 10008KT 6SM BR CLR M08/M10 A3028 RMK AO2 SLP263 T10781100
3:50 AME 86 CLR
{BR} % 30.28
KMLI 120950Z AUTO 10007KT 6SM BR CLR M08/M10 A3028 RMK T10801100 MADISHF
3:45 AME 86 CLR
{BR} % 30.28
KMLI 120945Z AUTO 10007KT 6SM BR CLR M08/M10 A3028 RMK T10801100 MADISHF
3:40 AME 86 CLR
{BR} % 30.29
KMLI 120940Z AUTO 09007KT 6SM BR CLR M08/M10 A3029 RMK T10801100 MADISHF
3:35 AME 96 CLR
{BR} % 30.29
KMLI 120935Z AUTO 09008KT 6SM BR CLR M08/M10 A3029 RMK T10801100 MADISHF
3:30 AME 86 CLR
{BR} % 30.3
KMLI 120930Z AUTO 09007KT 6SM BR CLR M08/M10 A3029 RMK T10801100 MADISHF
3:20 AME 86 CLR
{BR} % 30.31
KMLI 120920Z AUTO 10007KT 6SM BR CLR M08/M10 A3030 RMK T10801100 MADISHF
3:15 AME 96 CLR
{HZ} % 30.31
KMLI 120915Z AUTO 10008KT 6SM HZ CLR M08/M11 A3030 RMK T10801110 MADISHF
3:10 AME 96 CLR
{BR} % 30.31
KMLI 120910Z AUTO 10008KT 6SM BR CLR M08/M11 A3030 RMK T10801110 MADISHF
3:05 AME 96 CLR
{BR} % 30.31
KMLI 120905Z AUTO 10008KT 6SM BR CLR M08/M11 A3030 RMK T10801110 MADISHF
3:00 AME 86 CLR
{BR} % 30.31
KMLI 120900Z AUTO 10007KT 6SM BR CLR M08/M11 A3030 RMK T10801110 MADISHF
2:55 AME 66 CLR
{HZ} % 30.31
KMLI 120855Z AUTO 10005KT 6SM HZ CLR M08/M11 A3030 RMK T10801110 MADISHF
2:52 AME 86 CLR
{HZ}17127 80% 30.310
KMLI 120852Z AUTO 10007KT 6SM HZ CLR M08/M11 A3031 RMK AO2 SLP273 T10831111 56025
2:50 AME 86 CLR
{BR} % 30.31
KMLI 120850Z AUTO 09007KT 6SM BR CLR M08/M11 A3030 RMK T10801110 MADISHF
2:45 AME 86 CLR
{BR} % 30.31
KMLI 120845Z AUTO 09007KT 6SM BR CLR M08/M11 A3030 RMK T10801110 MADISHF
2:40 AME 96 CLR
{BR} % 30.31
KMLI 120840Z AUTO 09008KT 6SM BR CLR M08/M11 A3030 RMK T10801110 MADISHF
2:35 AME 96 CLR
{BR} % 30.32
KMLI 120835Z AUTO 09008KT 6SM BR CLR M08/M11 A3031 RMK T10801110 MADISHF
2:30 AME 86 CLR
{HZ} % 30.33
KMLI 120830Z AUTO 09007KT 6SM HZ CLR M08/M11 A3032 RMK T10801110 MADISHF
2:25 AME 66 CLR
{HZ} % 30.33
KMLI 120825Z AUTO 09005KT 6SM HZ CLR M08/M11 A3032 RMK T10801110 MADISHF
2:20 AME 86 CLR
{HZ} % 30.33
KMLI 120820Z AUTO 09007KT 6SM HZ CLR M08/M11 A3032 RMK T10801110 MADISHF
2:15 AME 66 CLR
{BR} % 30.33
KMLI 120815Z AUTO 09005KT 6SM BR CLR M08/M11 A3032 RMK T10801110 MADISHF
2:10 AME 86 CLR
{BR} % 30.33
KMLI 120810Z AUTO 09007KT 6SM BR CLR M08/M11 A3032 RMK T10801110 MADISHF
2:05 AME 86 CLR
{BR} % 30.33
KMLI 120805Z AUTO 09007KT 6SM BR CLR M08/M11 A3032 RMK T10801110 MADISHF
2:00 AME 86 CLR
{HZ} % 30.33
KMLI 120800Z AUTO 09007KT 6SM HZ CLR M08/M11 A3032 RMK T10801110 MADISHF
1:55 AME 96 CLR
{HZ} % 30.34
KMLI 120755Z AUTO 09008KT 6SM HZ CLR M08/M11 A3034 RMK T10801110 MADISHF
1:52 AME 86 CLR
{HZ}18138 80% 30.340
KMLI 120752Z AUTO 09007KT 6SM HZ CLR M08/M11 A3034 RMK AO2 SLP283 T10781106
1:50 AME 96 CLR
{HZ} % 30.34
KMLI 120750Z AUTO 09008KT 6SM HZ CLR M08/M11 A3034 RMK T10801110 MADISHF
1:45 AME 96 CLR
{HZ} % 30.34
KMLI 120745Z AUTO 09008KT 6SM HZ CLR M08/M11 A3034 RMK T10801110 MADISHF
1:40 AME 96 CLR
{HZ} % 30.34
KMLI 120740Z AUTO 09008KT 6SM HZ CLR M08/M11 A3034 RMK T10801110 MADISHF
1:35 AME 106 CLR
{HZ} % 30.34
KMLI 120735Z AUTO 09009KT 6SM HZ CLR M07/M10 A3034 RMK T10701100 MADISHF
1:30 AME 96 CLR
{HZ} % 30.34
KMLI 120730Z AUTO 09008KT 6SM HZ CLR M08/M11 A3034 RMK T10801110 MADISHF
1:25 AME 106 CLR
{HZ} % 30.34
KMLI 120725Z AUTO 09009KT 6SM HZ CLR M08/M11 A3034 RMK T10801110 MADISHF
1:20 AME 106 CLR
{HZ} % 30.34
KMLI 120720Z AUTO 10009KT 6SM HZ CLR M08/M11 A3034 RMK T10801110 MADISHF
1:15 AME 126 CLR
{HZ} % 30.35
KMLI 120715Z AUTO 10010KT 6SM HZ CLR M08/M11 A3035 RMK T10801110 MADISHF
1:10 AME 106 CLR
{HZ} % 30.35
KMLI 120710Z AUTO 09009KT 6SM HZ CLR M08/M11 A3035 RMK T10801110 MADISHF
1:05 AME 106 CLR
{HZ} % 30.35
KMLI 120705Z AUTO 09009KT 6SM HZ CLR M08/M11 A3035 RMK T10801110 MADISHF
1:00 AME 96 CLR
{HZ} % 30.35
KMLI 120700Z AUTO 09008KT 6SM HZ CLR M08/M11 A3035 RMK T10801110 MADISHF
12:55 AME 96 CLR
{HZ} % 30.35
KMLI 120655Z AUTO 10008KT 6SM HZ CLR M08/M11 A3035 RMK T10801110 MADISHF
12:52 AME 106 CLR
{HZ}18136 80% 30.350
KMLI 120652Z AUTO 10009KT 6SM HZ CLR M08/M11 A3035 RMK AO2 SLP288 T10781106
12:50 AME 96 CLR
{HZ} % 30.36
KMLI 120650Z AUTO 10008KT 6SM HZ CLR M08/M11 A3036 RMK T10801110 MADISHF
12:45 AME 96 CLR
{HZ} % 30.36
KMLI 120645Z AUTO 09008KT 6SM HZ CLR M08/M11 A3036 RMK T10801110 MADISHF
12:40 AME 97 CLR
% 30.36
KMLI 120640Z AUTO 10008KT 7SM CLR M08/M11 A3036 RMK T10801110 MADISHF
12:35 AMESE 87 CLR
% 30.37
KMLI 120635Z AUTO 11007KT 7SM CLR M08/M11 A3037 RMK T10801110 MADISHF
12:30 AMESE 87 CLR
% 30.37
KMLI 120630Z AUTO 11007KT 7SM CLR M08/M11 A3037 RMK T10801110 MADISHF
12:25 AMESE 86 CLR
{HZ} % 30.37
KMLI 120625Z AUTO 12007KT 6SM HZ CLR M08/M11 A3037 RMK T10801110 MADISHF
12:20 AME 96 CLR
{HZ} % 30.37
KMLI 120620Z AUTO 10008KT 6SM HZ CLR M08/M11 A3037 RMK T10801110 MADISHF
12:15 AME 96 CLR
{HZ} % 30.37
KMLI 120615Z AUTO 10008KT 6SM HZ CLR M08/M11 A3037 RMK T10801110 MADISHF
12:10 AME 96 CLR
{HZ} % 30.38
KMLI 120610Z AUTO 10008KT 6SM HZ CLR M08/M11 A3037 RMK T10801110 MADISHF
12:05 AME 97 CLR
% 30.38
KMLI 120605Z AUTO 09008KT 7SM CLR M08/M11 A3037 RMK T10801110 MADISHF
12:00 AME 97 CLR
% 30.39
KMLI 120600Z AUTO 09008KT 7SM CLR M09/M11 A3038 RMK T10901110 MADISHF

Data Notes

  • For recent years, this page also optionally shows observations from the MADIS High Frequency METAR dataset. This dataset had a problem with temperatures detailed here.